sensor_id;sensor_type;location;lat;lon;timestamp;P1;durP1;ratioP1;P2;durP2;ratioP2
74926;SDS011;63488;48.092;-1.640;2023-09-30T00:00:56;10.93;;;2.67;;
74926;SDS011;63488;48.092;-1.640;2023-09-30T00:03:22;8.98;;;2.28;;
74926;SDS011;63488;48.092;-1.640;2023-09-30T00:05:47;7.55;;;2.03;;
74926;SDS011;63488;48.092;-1.640;2023-09-30T00:08:13;10.50;;;2.63;;
74926;SDS011;63488;48.092;-1.640;2023-09-30T00:10:38;7.63;;;2.42;;
74926;SDS011;63488;48.092;-1.640;2023-09-30T00:13:03;6.13;;;2.20;;
74926;SDS011;63488;48.092;-1.640;2023-09-30T00:15:32;8.23;;;2.10;;
74926;SDS011;63488;48.092;-1.640;2023-09-30T00:17:57;11.38;;;2.83;;
74926;SDS011;63488;48.092;-1.640;2023-09-30T00:20:22;9.48;;;2.47;;
74926;SDS011;63488;48.092;-1.640;2023-09-30T00:22:48;8.95;;;2.38;;
74926;SDS011;63488;48.092;-1.640;2023-09-30T00:25:13;8.80;;;2.75;;
74926;SDS011;63488;48.092;-1.640;2023-09-30T00:27:38;10.40;;;2.88;;
74926;SDS011;63488;48.092;-1.640;2023-09-30T00:30:04;9.63;;;2.70;;
74926;SDS011;63488;48.092;-1.640;2023-09-30T00:32:31;9.13;;;2.95;;
74926;SDS011;63488;48.092;-1.640;2023-09-30T00:34:56;9.05;;;2.28;;
74926;SDS011;63488;48.092;-1.640;2023-09-30T00:37:22;10.50;;;2.60;;
74926;SDS011;63488;48.092;-1.640;2023-09-30T00:39:47;12.10;;;2.90;;
74926;SDS011;63488;48.092;-1.640;2023-09-30T00:42:13;12.43;;;2.78;;
74926;SDS011;63488;48.092;-1.640;2023-09-30T00:44:38;9.48;;;2.38;;
74926;SDS011;63488;48.092;-1.640;2023-09-30T00:47:03;12.52;;;2.47;;
74926;SDS011;63488;48.092;-1.640;2023-09-30T00:49:29;9.52;;;2.42;;
74926;SDS011;63488;48.092;-1.640;2023-09-30T00:51:55;9.13;;;2.60;;
74926;SDS011;63488;48.092;-1.640;2023-09-30T00:54:21;9.10;;;2.55;;
74926;SDS011;63488;48.092;-1.640;2023-09-30T00:56:47;10.30;;;2.47;;
74926;SDS011;63488;48.092;-1.640;2023-09-30T00:59:14;8.98;;;2.20;;
74926;SDS011;63488;48.092;-1.640;2023-09-30T01:01:43;11.13;;;2.50;;
74926;SDS011;63488;48.092;-1.640;2023-09-30T01:04:09;10.98;;;2.40;;
74926;SDS011;63488;48.092;-1.640;2023-09-30T01:06:35;8.77;;;2.53;;
74926;SDS011;63488;48.092;-1.640;2023-09-30T01:09:00;8.52;;;2.55;;
74926;SDS011;63488;48.092;-1.640;2023-09-30T01:11:25;9.82;;;2.22;;
74926;SDS011;63488;48.092;-1.640;2023-09-30T01:13:51;7.63;;;1.98;;
74926;SDS011;63488;48.092;-1.640;2023-09-30T01:16:16;11.07;;;2.47;;
74926;SDS011;63488;48.092;-1.640;2023-09-30T01:18:42;8.20;;;2.05;;
74926;SDS011;63488;48.092;-1.640;2023-09-30T01:21:08;10.23;;;2.17;;
74926;SDS011;63488;48.092;-1.640;2023-09-30T01:23:33;6.18;;;1.85;;
74926;SDS011;63488;48.092;-1.640;2023-09-30T01:26:03;9.60;;;1.70;;
74926;SDS011;63488;48.092;-1.640;2023-09-30T01:28:29;9.10;;;2.03;;
74926;SDS011;63488;48.092;-1.640;2023-09-30T01:30:55;6.88;;;2.25;;
74926;SDS011;63488;48.092;-1.640;2023-09-30T01:33:20;10.02;;;2.10;;
74926;SDS011;63488;48.092;-1.640;2023-09-30T01:35:46;11.35;;;2.38;;
74926;SDS011;63488;48.092;-1.640;2023-09-30T01:38:11;8.32;;;1.83;;
74926;SDS011;63488;48.092;-1.640;2023-09-30T01:40:36;10.02;;;2.10;;
74926;SDS011;63488;48.092;-1.640;2023-09-30T01:43:05;8.52;;;2.08;;
74926;SDS011;63488;48.092;-1.640;2023-09-30T01:45:30;11.88;;;2.45;;
74926;SDS011;63488;48.092;-1.640;2023-09-30T01:47:55;12.32;;;2.63;;
74926;SDS011;63488;48.092;-1.640;2023-09-30T01:50:21;11.73;;;2.25;;
74926;SDS011;63488;48.092;-1.640;2023-09-30T01:52:46;9.25;;;2.03;;
74926;SDS011;63488;48.092;-1.640;2023-09-30T01:55:11;7.32;;;2.45;;
74926;SDS011;63488;48.092;-1.640;2023-09-30T01:57:37;7.85;;;2.20;;
74926;SDS011;63488;48.092;-1.640;2023-09-30T02:00:03;11.27;;;2.33;;
74926;SDS011;63488;48.092;-1.640;2023-09-30T02:02:29;7.63;;;2.00;;
74926;SDS011;63488;48.092;-1.640;2023-09-30T02:04:55;8.73;;;1.98;;
74926;SDS011;63488;48.092;-1.640;2023-09-30T02:07:20;10.82;;;2.30;;
74926;SDS011;63488;48.092;-1.640;2023-09-30T02:09:45;6.35;;;1.73;;
74926;SDS011;63488;48.092;-1.640;2023-09-30T02:12:11;8.93;;;2.30;;
74926;SDS011;63488;48.092;-1.640;2023-09-30T02:14:37;7.90;;;1.88;;
74926;SDS011;63488;48.092;-1.640;2023-09-30T02:17:03;10.73;;;2.80;;
74926;SDS011;63488;48.092;-1.640;2023-09-30T02:19:29;9.07;;;2.55;;
74926;SDS011;63488;48.092;-1.640;2023-09-30T02:21:56;6.07;;;1.70;;
74926;SDS011;63488;48.092;-1.640;2023-09-30T02:24:22;9.00;;;2.50;;
74926;SDS011;63488;48.092;-1.640;2023-09-30T02:26:48;7.97;;;2.20;;
74926;SDS011;63488;48.092;-1.640;2023-09-30T02:29:13;7.97;;;2.00;;
74926;SDS011;63488;48.092;-1.640;2023-09-30T02:31:38;11.13;;;2.53;;
74926;SDS011;63488;48.092;-1.640;2023-09-30T02:34:04;9.10;;;2.10;;
74926;SDS011;63488;48.092;-1.640;2023-09-30T02:36:29;7.68;;;1.88;;
74926;SDS011;63488;48.092;-1.640;2023-09-30T02:38:54;9.88;;;2.22;;
74926;SDS011;63488;48.092;-1.640;2023-09-30T02:41:20;8.00;;;1.88;;
74926;SDS011;63488;48.092;-1.640;2023-09-30T02:43:45;10.68;;;2.60;;
74926;SDS011;63488;48.092;-1.640;2023-09-30T02:46:11;7.05;;;2.25;;
74926;SDS011;63488;48.092;-1.640;2023-09-30T02:48:37;8.38;;;2.20;;
74926;SDS011;63488;48.092;-1.640;2023-09-30T02:51:03;8.48;;;1.80;;
74926;SDS011;63488;48.092;-1.640;2023-09-30T02:53:28;10.85;;;2.15;;
74926;SDS011;63488;48.092;-1.640;2023-09-30T02:55:53;9.52;;;2.38;;
74926;SDS011;63488;48.092;-1.640;2023-09-30T02:58:22;9.85;;;2.10;;
74926;SDS011;63488;48.092;-1.640;2023-09-30T03:00:48;7.38;;;2.20;;
74926;SDS011;63488;48.092;-1.640;2023-09-30T03:03:14;7.13;;;2.05;;
74926;SDS011;63488;48.092;-1.640;2023-09-30T03:05:39;10.23;;;2.55;;
74926;SDS011;63488;48.092;-1.640;2023-09-30T03:08:05;8.27;;;2.10;;
74926;SDS011;63488;48.092;-1.640;2023-09-30T03:10:30;7.90;;;1.83;;
74926;SDS011;63488;48.092;-1.640;2023-09-30T03:12:56;7.82;;;1.90;;
74926;SDS011;63488;48.092;-1.640;2023-09-30T03:15:26;13.02;;;2.63;;
74926;SDS011;63488;48.092;-1.640;2023-09-30T03:17:52;10.93;;;2.38;;
74926;SDS011;63488;48.092;-1.640;2023-09-30T03:20:18;10.32;;;1.95;;
74926;SDS011;63488;48.092;-1.640;2023-09-30T03:22:45;8.95;;;1.85;;
74926;SDS011;63488;48.092;-1.640;2023-09-30T03:25:13;10.40;;;2.13;;
74926;SDS011;63488;48.092;-1.640;2023-09-30T03:27:41;9.50;;;2.22;;
74926;SDS011;63488;48.092;-1.640;2023-09-30T03:30:06;11.93;;;2.20;;
74926;SDS011;63488;48.092;-1.640;2023-09-30T03:32:32;6.70;;;1.75;;
74926;SDS011;63488;48.092;-1.640;2023-09-30T03:35:07;7.78;;;1.60;;
74926;SDS011;63488;48.092;-1.640;2023-09-30T03:37:32;9.00;;;2.00;;
74926;SDS011;63488;48.092;-1.640;2023-09-30T03:39:59;10.25;;;2.72;;
74926;SDS011;63488;48.092;-1.640;2023-09-30T03:42:26;6.50;;;1.92;;
74926;SDS011;63488;48.092;-1.640;2023-09-30T03:44:51;7.63;;;1.85;;
74926;SDS011;63488;48.092;-1.640;2023-09-30T03:47:16;10.07;;;2.13;;
74926;SDS011;63488;48.092;-1.640;2023-09-30T03:49:42;9.45;;;2.05;;
74926;SDS011;63488;48.092;-1.640;2023-09-30T03:52:08;6.63;;;2.00;;
74926;SDS011;63488;48.092;-1.640;2023-09-30T03:54:33;10.07;;;1.80;;
74926;SDS011;63488;48.092;-1.640;2023-09-30T03:56:59;11.23;;;2.67;;
74926;SDS011;63488;48.092;-1.640;2023-09-30T03:59:25;7.88;;;1.77;;
74926;SDS011;63488;48.092;-1.640;2023-09-30T04:01:51;7.22;;;2.25;;
74926;SDS011;63488;48.092;-1.640;2023-09-30T04:04:18;5.07;;;1.67;;
74926;SDS011;63488;48.092;-1.640;2023-09-30T04:06:44;6.22;;;2.05;;
74926;SDS011;63488;48.092;-1.640;2023-09-30T04:09:09;6.72;;;1.70;;
74926;SDS011;63488;48.092;-1.640;2023-09-30T04:11:38;7.35;;;1.75;;
74926;SDS011;63488;48.092;-1.640;2023-09-30T04:14:04;7.23;;;1.70;;
74926;SDS011;63488;48.092;-1.640;2023-09-30T04:16:31;6.85;;;1.70;;
74926;SDS011;63488;48.092;-1.640;2023-09-30T04:18:56;5.53;;;1.73;;
74926;SDS011;63488;48.092;-1.640;2023-09-30T04:21:21;6.97;;;2.13;;
74926;SDS011;63488;48.092;-1.640;2023-09-30T04:23:47;9.85;;;2.03;;
74926;SDS011;63488;48.092;-1.640;2023-09-30T04:26:12;5.72;;;2.03;;
74926;SDS011;63488;48.092;-1.640;2023-09-30T04:28:37;5.65;;;2.38;;
74926;SDS011;63488;48.092;-1.640;2023-09-30T04:31:03;8.32;;;1.80;;
74926;SDS011;63488;48.092;-1.640;2023-09-30T04:33:30;7.47;;;2.05;;
74926;SDS011;63488;48.092;-1.640;2023-09-30T04:35:55;9.90;;;2.15;;
74926;SDS011;63488;48.092;-1.640;2023-09-30T04:38:22;9.05;;;1.92;;
74926;SDS011;63488;48.092;-1.640;2023-09-30T04:40:47;9.35;;;2.05;;
74926;SDS011;63488;48.092;-1.640;2023-09-30T04:43:16;7.57;;;1.70;;
74926;SDS011;63488;48.092;-1.640;2023-09-30T04:45:42;9.18;;;2.28;;
74926;SDS011;63488;48.092;-1.640;2023-09-30T04:48:07;6.32;;;1.67;;
74926;SDS011;63488;48.092;-1.640;2023-09-30T04:50:33;9.77;;;2.08;;
74926;SDS011;63488;48.092;-1.640;2023-09-30T04:52:58;11.27;;;2.25;;
74926;SDS011;63488;48.092;-1.640;2023-09-30T04:55:23;6.80;;;1.90;;
74926;SDS011;63488;48.092;-1.640;2023-09-30T04:57:50;8.00;;;1.77;;
74926;SDS011;63488;48.092;-1.640;2023-09-30T05:00:16;9.60;;;2.03;;
74926;SDS011;63488;48.092;-1.640;2023-09-30T05:02:43;6.70;;;1.75;;
74926;SDS011;63488;48.092;-1.640;2023-09-30T05:05:10;6.03;;;1.73;;
74926;SDS011;63488;48.092;-1.640;2023-09-30T05:07:35;8.70;;;2.20;;
74926;SDS011;63488;48.092;-1.640;2023-09-30T05:10:01;8.57;;;2.10;;
74926;SDS011;63488;48.092;-1.640;2023-09-30T05:12:30;4.87;;;1.63;;
74926;SDS011;63488;48.092;-1.640;2023-09-30T05:14:55;7.10;;;1.98;;
74926;SDS011;63488;48.092;-1.640;2023-09-30T05:17:20;8.55;;;2.05;;
74926;SDS011;63488;48.092;-1.640;2023-09-30T05:19:46;10.98;;;2.15;;
74926;SDS011;63488;48.092;-1.640;2023-09-30T05:22:12;5.60;;;1.60;;
74926;SDS011;63488;48.092;-1.640;2023-09-30T05:24:37;6.13;;;2.00;;
74926;SDS011;63488;48.092;-1.640;2023-09-30T05:27:02;8.75;;;1.92;;
74926;SDS011;63488;48.092;-1.640;2023-09-30T05:29:28;6.47;;;1.98;;
74926;SDS011;63488;48.092;-1.640;2023-09-30T05:31:54;10.35;;;2.17;;
74926;SDS011;63488;48.092;-1.640;2023-09-30T05:34:19;5.78;;;1.90;;
74926;SDS011;63488;48.092;-1.640;2023-09-30T05:36:45;8.82;;;2.63;;
74926;SDS011;63488;48.092;-1.640;2023-09-30T05:39:10;8.48;;;2.00;;
74926;SDS011;63488;48.092;-1.640;2023-09-30T05:41:36;6.90;;;2.20;;
74926;SDS011;63488;48.092;-1.640;2023-09-30T05:44:03;8.30;;;2.25;;
74926;SDS011;63488;48.092;-1.640;2023-09-30T05:46:29;8.95;;;2.38;;
74926;SDS011;63488;48.092;-1.640;2023-09-30T05:48:55;6.60;;;2.20;;
74926;SDS011;63488;48.092;-1.640;2023-09-30T05:51:21;8.65;;;1.90;;
74926;SDS011;63488;48.092;-1.640;2023-09-30T05:53:46;7.70;;;1.92;;
74926;SDS011;63488;48.092;-1.640;2023-09-30T05:56:13;8.25;;;1.92;;
74926;SDS011;63488;48.092;-1.640;2023-09-30T05:58:40;7.45;;;1.67;;
74926;SDS011;63488;48.092;-1.640;2023-09-30T06:01:08;7.80;;;2.30;;
74926;SDS011;63488;48.092;-1.640;2023-09-30T06:03:37;7.25;;;2.05;;
74926;SDS011;63488;48.092;-1.640;2023-09-30T06:06:11;8.10;;;1.98;;
74926;SDS011;63488;48.092;-1.640;2023-09-30T06:08:37;7.80;;;1.92;;
74926;SDS011;63488;48.092;-1.640;2023-09-30T06:11:03;8.25;;;2.05;;
74926;SDS011;63488;48.092;-1.640;2023-09-30T06:13:28;6.50;;;2.00;;
74926;SDS011;63488;48.092;-1.640;2023-09-30T06:15:56;11.65;;;2.00;;
74926;SDS011;63488;48.092;-1.640;2023-09-30T06:18:22;6.38;;;1.90;;
74926;SDS011;63488;48.092;-1.640;2023-09-30T06:20:47;8.35;;;2.67;;
74926;SDS011;63488;48.092;-1.640;2023-09-30T06:23:14;8.50;;;2.28;;
74926;SDS011;63488;48.092;-1.640;2023-09-30T06:25:39;6.22;;;2.10;;
74926;SDS011;63488;48.092;-1.640;2023-09-30T06:28:05;9.02;;;2.45;;
74926;SDS011;63488;48.092;-1.640;2023-09-30T06:30:30;7.20;;;2.00;;
74926;SDS011;63488;48.092;-1.640;2023-09-30T06:32:58;7.57;;;2.03;;
74926;SDS011;63488;48.092;-1.640;2023-09-30T06:35:25;7.85;;;2.00;;
74926;SDS011;63488;48.092;-1.640;2023-09-30T06:37:51;8.65;;;2.40;;
74926;SDS011;63488;48.092;-1.640;2023-09-30T06:40:16;12.60;;;4.72;;
74926;SDS011;63488;48.092;-1.640;2023-09-30T06:42:42;13.80;;;6.55;;
74926;SDS011;63488;48.092;-1.640;2023-09-30T06:45:08;16.92;;;7.20;;
74926;SDS011;63488;48.092;-1.640;2023-09-30T06:47:35;11.65;;;5.18;;
74926;SDS011;63488;48.092;-1.640;2023-09-30T06:50:01;10.63;;;3.55;;
74926;SDS011;63488;48.092;-1.640;2023-09-30T06:52:33;14.98;;;6.72;;
74926;SDS011;63488;48.092;-1.640;2023-09-30T06:54:58;11.55;;;5.20;;
74926;SDS011;63488;48.092;-1.640;2023-09-30T06:57:24;7.82;;;2.75;;
74926;SDS011;63488;48.092;-1.640;2023-09-30T06:59:49;9.63;;;2.47;;
74926;SDS011;63488;48.092;-1.640;2023-09-30T07:02:15;6.82;;;2.35;;
74926;SDS011;63488;48.092;-1.640;2023-09-30T07:04:40;7.80;;;2.30;;
74926;SDS011;63488;48.092;-1.640;2023-09-30T07:07:06;6.97;;;2.15;;
74926;SDS011;63488;48.092;-1.640;2023-09-30T07:09:31;8.88;;;2.55;;
74926;SDS011;63488;48.092;-1.640;2023-09-30T07:11:56;8.45;;;2.30;;
74926;SDS011;63488;48.092;-1.640;2023-09-30T07:14:22;8.68;;;2.20;;
74926;SDS011;63488;48.092;-1.640;2023-09-30T07:16:47;13.82;;;2.60;;
74926;SDS011;63488;48.092;-1.640;2023-09-30T07:19:13;9.43;;;2.25;;
74926;SDS011;63488;48.092;-1.640;2023-09-30T07:21:38;8.75;;;2.78;;
74926;SDS011;63488;48.092;-1.640;2023-09-30T07:24:04;11.23;;;2.90;;
74926;SDS011;63488;48.092;-1.640;2023-09-30T07:26:29;10.65;;;3.15;;
74926;SDS011;63488;48.092;-1.640;2023-09-30T07:28:54;17.92;;;8.35;;
74926;SDS011;63488;48.092;-1.640;2023-09-30T07:31:21;16.40;;;7.38;;
74926;SDS011;63488;48.092;-1.640;2023-09-30T07:33:48;10.93;;;4.60;;
74926;SDS011;63488;48.092;-1.640;2023-09-30T07:36:14;11.60;;;3.05;;
74926;SDS011;63488;48.092;-1.640;2023-09-30T07:38:39;11.60;;;3.38;;
74926;SDS011;63488;48.092;-1.640;2023-09-30T07:41:05;13.73;;;3.13;;
74926;SDS011;63488;48.092;-1.640;2023-09-30T07:43:31;10.77;;;2.90;;
74926;SDS011;63488;48.092;-1.640;2023-09-30T07:45:56;13.13;;;3.35;;
74926;SDS011;63488;48.092;-1.640;2023-09-30T07:48:21;9.30;;;3.63;;
74926;SDS011;63488;48.092;-1.640;2023-09-30T07:50:47;8.02;;;2.78;;
74926;SDS011;63488;48.092;-1.640;2023-09-30T07:53:12;9.27;;;2.95;;
74926;SDS011;63488;48.092;-1.640;2023-09-30T07:55:38;10.85;;;3.00;;
74926;SDS011;63488;48.092;-1.640;2023-09-30T07:58:04;11.65;;;3.03;;
74926;SDS011;63488;48.092;-1.640;2023-09-30T08:00:30;10.73;;;2.92;;
74926;SDS011;63488;48.092;-1.640;2023-09-30T08:02:55;8.93;;;3.00;;
74926;SDS011;63488;48.092;-1.640;2023-09-30T08:05:20;11.38;;;3.03;;
74926;SDS011;63488;48.092;-1.640;2023-09-30T08:07:46;10.90;;;3.05;;
74926;SDS011;63488;48.092;-1.640;2023-09-30T08:10:11;14.27;;;3.22;;
74926;SDS011;63488;48.092;-1.640;2023-09-30T08:12:41;12.52;;;3.83;;
74926;SDS011;63488;48.092;-1.640;2023-09-30T08:15:07;13.45;;;3.30;;
74926;SDS011;63488;48.092;-1.640;2023-09-30T08:17:33;12.55;;;4.18;;
74926;SDS011;63488;48.092;-1.640;2023-09-30T08:19:59;15.20;;;5.35;;
74926;SDS011;63488;48.092;-1.640;2023-09-30T08:22:24;11.32;;;3.65;;
74926;SDS011;63488;48.092;-1.640;2023-09-30T08:24:53;10.25;;;2.90;;
74926;SDS011;63488;48.092;-1.640;2023-09-30T08:27:18;11.82;;;3.35;;
74926;SDS011;63488;48.092;-1.640;2023-09-30T08:29:43;8.23;;;2.80;;
74926;SDS011;63488;48.092;-1.640;2023-09-30T08:32:09;8.23;;;3.00;;
74926;SDS011;63488;48.092;-1.640;2023-09-30T08:34:35;9.40;;;2.40;;
74926;SDS011;63488;48.092;-1.640;2023-09-30T08:37:00;6.82;;;2.70;;
74926;SDS011;63488;48.092;-1.640;2023-09-30T08:39:26;10.25;;;2.75;;
74926;SDS011;63488;48.092;-1.640;2023-09-30T08:41:52;9.80;;;2.60;;
74926;SDS011;63488;48.092;-1.640;2023-09-30T08:44:18;10.75;;;2.70;;
74926;SDS011;63488;48.092;-1.640;2023-09-30T08:46:43;8.13;;;2.50;;
74926;SDS011;63488;48.092;-1.640;2023-09-30T08:49:09;9.63;;;2.72;;
74926;SDS011;63488;48.092;-1.640;2023-09-30T08:51:36;9.80;;;2.88;;
74926;SDS011;63488;48.092;-1.640;2023-09-30T08:54:01;11.30;;;3.08;;
74926;SDS011;63488;48.092;-1.640;2023-09-30T08:56:29;10.48;;;3.53;;
74926;SDS011;63488;48.092;-1.640;2023-09-30T08:58:58;9.82;;;3.05;;
74926;SDS011;63488;48.092;-1.640;2023-09-30T09:01:25;10.67;;;3.40;;
74926;SDS011;63488;48.092;-1.640;2023-09-30T09:03:50;9.63;;;2.85;;
74926;SDS011;63488;48.092;-1.640;2023-09-30T09:06:21;8.45;;;2.90;;
74926;SDS011;63488;48.092;-1.640;2023-09-30T09:08:46;9.52;;;3.13;;
74926;SDS011;63488;48.092;-1.640;2023-09-30T09:11:12;12.95;;;5.82;;
74926;SDS011;63488;48.092;-1.640;2023-09-30T09:13:48;11.20;;;3.35;;
74926;SDS011;63488;48.092;-1.640;2023-09-30T09:16:15;10.27;;;4.00;;
74926;SDS011;63488;48.092;-1.640;2023-09-30T09:18:41;10.60;;;3.30;;
74926;SDS011;63488;48.092;-1.640;2023-09-30T09:21:10;10.77;;;3.85;;
74926;SDS011;63488;48.092;-1.640;2023-09-30T09:23:39;14.30;;;4.17;;
74926;SDS011;63488;48.092;-1.640;2023-09-30T09:26:04;13.57;;;4.15;;
74926;SDS011;63488;48.092;-1.640;2023-09-30T09:28:37;12.25;;;3.95;;
74926;SDS011;63488;48.092;-1.640;2023-09-30T09:31:23;13.10;;;4.40;;
74926;SDS011;63488;48.092;-1.640;2023-09-30T09:33:49;14.27;;;4.13;;
74926;SDS011;63488;48.092;-1.640;2023-09-30T09:36:14;11.50;;;4.13;;
74926;SDS011;63488;48.092;-1.640;2023-09-30T09:38:43;17.60;;;9.35;;
74926;SDS011;63488;48.092;-1.640;2023-09-30T09:41:09;11.37;;;3.90;;
74926;SDS011;63488;48.092;-1.640;2023-09-30T09:43:36;11.90;;;3.72;;
74926;SDS011;63488;48.092;-1.640;2023-09-30T09:46:04;14.38;;;4.80;;
74926;SDS011;63488;48.092;-1.640;2023-09-30T09:48:30;9.90;;;3.85;;
74926;SDS011;63488;48.092;-1.640;2023-09-30T09:50:56;13.27;;;4.30;;
74926;SDS011;63488;48.092;-1.640;2023-09-30T09:53:21;11.35;;;4.25;;
74926;SDS011;63488;48.092;-1.640;2023-09-30T09:55:48;10.13;;;3.88;;
74926;SDS011;63488;48.092;-1.640;2023-09-30T09:58:15;11.18;;;3.47;;
74926;SDS011;63488;48.092;-1.640;2023-09-30T10:00:41;11.15;;;4.20;;
74926;SDS011;63488;48.092;-1.640;2023-09-30T10:03:07;12.65;;;4.82;;
74926;SDS011;63488;48.092;-1.640;2023-09-30T10:05:32;10.82;;;4.20;;
74926;SDS011;63488;48.092;-1.640;2023-09-30T10:08:03;11.68;;;4.35;;
74926;SDS011;63488;48.092;-1.640;2023-09-30T10:10:30;11.85;;;4.00;;
74926;SDS011;63488;48.092;-1.640;2023-09-30T10:12:56;14.85;;;4.20;;
74926;SDS011;63488;48.092;-1.640;2023-09-30T10:20:49;12.95;;;4.50;;
74926;SDS011;63488;48.092;-1.640;2023-09-30T10:23:22;13.38;;;4.30;;
74926;SDS011;63488;48.092;-1.640;2023-09-30T10:25:51;15.00;;;4.03;;
74926;SDS011;63488;48.092;-1.640;2023-09-30T10:31:15;14.20;;;4.05;;
74926;SDS011;63488;48.092;-1.640;2023-09-30T10:36:32;15.48;;;4.90;;
74926;SDS011;63488;48.092;-1.640;2023-09-30T10:38:58;13.95;;;4.38;;
74926;SDS011;63488;48.092;-1.640;2023-09-30T10:46:50;11.93;;;3.90;;
74926;SDS011;63488;48.092;-1.640;2023-09-30T10:51:50;20.58;;;5.00;;
74926;SDS011;63488;48.092;-1.640;2023-09-30T10:54:18;14.43;;;5.13;;
74926;SDS011;63488;48.092;-1.640;2023-09-30T10:56:46;11.82;;;4.38;;
74926;SDS011;63488;48.092;-1.640;2023-09-30T10:59:18;16.42;;;5.45;;
74926;SDS011;63488;48.092;-1.640;2023-09-30T11:01:43;12.75;;;4.88;;
74926;SDS011;63488;48.092;-1.640;2023-09-30T11:04:09;16.38;;;4.82;;
74926;SDS011;63488;48.092;-1.640;2023-09-30T11:06:34;12.38;;;4.50;;
74926;SDS011;63488;48.092;-1.640;2023-09-30T11:09:00;14.25;;;5.57;;
74926;SDS011;63488;48.092;-1.640;2023-09-30T11:11:58;11.35;;;4.80;;
74926;SDS011;63488;48.092;-1.640;2023-09-30T11:14:22;13.57;;;4.22;;
74926;SDS011;63488;48.092;-1.640;2023-09-30T11:16:49;15.18;;;4.65;;
74926;SDS011;63488;48.092;-1.640;2023-09-30T11:19:14;13.10;;;4.32;;
74926;SDS011;63488;48.092;-1.640;2023-09-30T11:21:43;12.70;;;4.77;;
74926;SDS011;63488;48.092;-1.640;2023-09-30T11:24:09;10.30;;;4.22;;
74926;SDS011;63488;48.092;-1.640;2023-09-30T11:26:34;15.85;;;4.68;;
74926;SDS011;63488;48.092;-1.640;2023-09-30T11:29:07;12.60;;;4.82;;
74926;SDS011;63488;48.092;-1.640;2023-09-30T11:31:32;11.63;;;4.78;;
74926;SDS011;63488;48.092;-1.640;2023-09-30T11:33:59;10.85;;;4.80;;
74926;SDS011;63488;48.092;-1.640;2023-09-30T11:36:28;10.82;;;4.50;;
74926;SDS011;63488;48.092;-1.640;2023-09-30T11:38:55;18.08;;;5.13;;
74926;SDS011;63488;48.092;-1.640;2023-09-30T11:41:20;13.23;;;4.65;;
74926;SDS011;63488;48.092;-1.640;2023-09-30T11:44:03;13.27;;;4.57;;
74926;SDS011;63488;48.092;-1.640;2023-09-30T11:46:53;14.05;;;4.65;;
74926;SDS011;63488;48.092;-1.640;2023-09-30T11:51:52;14.63;;;5.13;;
74926;SDS011;63488;48.092;-1.640;2023-09-30T11:54:17;11.43;;;4.78;;
74926;SDS011;63488;48.092;-1.640;2023-09-30T11:56:43;14.85;;;4.90;;
74926;SDS011;63488;48.092;-1.640;2023-09-30T11:59:08;16.63;;;5.32;;
74926;SDS011;63488;48.092;-1.640;2023-09-30T12:01:36;11.15;;;4.15;;
74926;SDS011;63488;48.092;-1.640;2023-09-30T12:04:02;11.18;;;4.63;;
74926;SDS011;63488;48.092;-1.640;2023-09-30T12:06:28;20.90;;;5.20;;
74926;SDS011;63488;48.092;-1.640;2023-09-30T12:08:53;13.50;;;5.10;;
74926;SDS011;63488;48.092;-1.640;2023-09-30T12:11:19;13.30;;;4.95;;
74926;SDS011;63488;48.092;-1.640;2023-09-30T12:13:44;14.30;;;5.30;;
74926;SDS011;63488;48.092;-1.640;2023-09-30T12:16:12;16.65;;;5.47;;
74926;SDS011;63488;48.092;-1.640;2023-09-30T12:18:38;15.40;;;5.00;;
74926;SDS011;63488;48.092;-1.640;2023-09-30T12:21:03;13.32;;;4.78;;
74926;SDS011;63488;48.092;-1.640;2023-09-30T12:23:31;14.75;;;5.53;;
74926;SDS011;63488;48.092;-1.640;2023-09-30T12:25:57;11.00;;;5.10;;
74926;SDS011;63488;48.092;-1.640;2023-09-30T12:28:22;11.93;;;5.07;;
74926;SDS011;63488;48.092;-1.640;2023-09-30T12:30:47;14.57;;;5.22;;
74926;SDS011;63488;48.092;-1.640;2023-09-30T12:33:12;11.32;;;5.00;;
74926;SDS011;63488;48.092;-1.640;2023-09-30T12:35:38;10.15;;;5.18;;
74926;SDS011;63488;48.092;-1.640;2023-09-30T12:38:03;17.90;;;5.47;;
74926;SDS011;63488;48.092;-1.640;2023-09-30T12:40:28;12.77;;;4.90;;
74926;SDS011;63488;48.092;-1.640;2023-09-30T12:42:54;14.00;;;4.80;;
74926;SDS011;63488;48.092;-1.640;2023-09-30T12:45:20;14.38;;;5.57;;
74926;SDS011;63488;48.092;-1.640;2023-09-30T12:47:45;11.20;;;4.85;;
74926;SDS011;63488;48.092;-1.640;2023-09-30T12:50:12;14.00;;;5.35;;
74926;SDS011;63488;48.092;-1.640;2023-09-30T12:52:37;14.05;;;5.60;;
74926;SDS011;63488;48.092;-1.640;2023-09-30T12:55:04;12.77;;;5.35;;
74926;SDS011;63488;48.092;-1.640;2023-09-30T12:57:30;11.25;;;5.55;;
74926;SDS011;63488;48.092;-1.640;2023-09-30T12:59:55;13.93;;;5.47;;
74926;SDS011;63488;48.092;-1.640;2023-09-30T13:02:20;13.48;;;5.18;;
74926;SDS011;63488;48.092;-1.640;2023-09-30T13:04:46;11.52;;;5.05;;
74926;SDS011;63488;48.092;-1.640;2023-09-30T13:07:11;11.85;;;5.10;;
74926;SDS011;63488;48.092;-1.640;2023-09-30T13:09:38;12.32;;;4.93;;
74926;SDS011;63488;48.092;-1.640;2023-09-30T13:12:03;14.90;;;5.57;;
74926;SDS011;63488;48.092;-1.640;2023-09-30T13:14:29;11.93;;;4.75;;
74926;SDS011;63488;48.092;-1.640;2023-09-30T13:16:54;12.98;;;5.38;;
74926;SDS011;63488;48.092;-1.640;2023-09-30T13:19:20;13.55;;;5.43;;
74926;SDS011;63488;48.092;-1.640;2023-09-30T13:21:49;12.35;;;5.35;;
74926;SDS011;63488;48.092;-1.640;2023-09-30T13:24:15;15.00;;;5.78;;
74926;SDS011;63488;48.092;-1.640;2023-09-30T13:26:40;12.35;;;5.47;;
74926;SDS011;63488;48.092;-1.640;2023-09-30T13:29:06;14.05;;;5.78;;
74926;SDS011;63488;48.092;-1.640;2023-09-30T13:31:34;12.20;;;5.13;;
74926;SDS011;63488;48.092;-1.640;2023-09-30T13:34:01;13.48;;;5.05;;
74926;SDS011;63488;48.092;-1.640;2023-09-30T13:36:28;12.00;;;5.13;;
74926;SDS011;63488;48.092;-1.640;2023-09-30T13:38:53;12.70;;;5.20;;
74926;SDS011;63488;48.092;-1.640;2023-09-30T13:41:19;10.95;;;4.97;;
74926;SDS011;63488;48.092;-1.640;2023-09-30T13:43:44;13.75;;;4.47;;
74926;SDS011;63488;48.092;-1.640;2023-09-30T13:46:10;15.48;;;5.43;;
74926;SDS011;63488;48.092;-1.640;2023-09-30T13:48:37;13.43;;;5.25;;
74926;SDS011;63488;48.092;-1.640;2023-09-30T13:51:05;14.77;;;5.38;;
74926;SDS011;63488;48.092;-1.640;2023-09-30T13:53:31;13.25;;;5.15;;
74926;SDS011;63488;48.092;-1.640;2023-09-30T13:55:57;13.80;;;5.40;;
74926;SDS011;63488;48.092;-1.640;2023-09-30T13:58:22;11.75;;;5.25;;
74926;SDS011;63488;48.092;-1.640;2023-09-30T14:00:48;13.77;;;5.47;;
74926;SDS011;63488;48.092;-1.640;2023-09-30T14:03:13;13.13;;;6.03;;
74926;SDS011;63488;48.092;-1.640;2023-09-30T14:05:38;12.40;;;5.45;;
74926;SDS011;63488;48.092;-1.640;2023-09-30T14:08:04;14.77;;;5.97;;
74926;SDS011;63488;48.092;-1.640;2023-09-30T14:10:32;11.38;;;5.47;;
74926;SDS011;63488;48.092;-1.640;2023-09-30T14:12:58;13.98;;;5.07;;
74926;SDS011;63488;48.092;-1.640;2023-09-30T14:15:23;13.90;;;5.50;;
74926;SDS011;63488;48.092;-1.640;2023-09-30T14:17:49;13.73;;;5.47;;
74926;SDS011;63488;48.092;-1.640;2023-09-30T14:20:14;14.60;;;5.57;;
74926;SDS011;63488;48.092;-1.640;2023-09-30T14:22:39;12.32;;;5.70;;
74926;SDS011;63488;48.092;-1.640;2023-09-30T14:25:05;14.93;;;5.13;;
74926;SDS011;63488;48.092;-1.640;2023-09-30T14:27:31;12.43;;;5.10;;
74926;SDS011;63488;48.092;-1.640;2023-09-30T14:29:56;16.77;;;5.85;;
74926;SDS011;63488;48.092;-1.640;2023-09-30T14:32:21;12.98;;;4.93;;
74926;SDS011;63488;48.092;-1.640;2023-09-30T14:34:48;12.77;;;5.70;;
74926;SDS011;63488;48.092;-1.640;2023-09-30T14:37:14;12.27;;;5.10;;
74926;SDS011;63488;48.092;-1.640;2023-09-30T14:39:39;12.45;;;5.25;;
74926;SDS011;63488;48.092;-1.640;2023-09-30T14:42:04;18.63;;;6.47;;